createdAt,value
2017-10-22T00:01:52.249Z,86.30
2017-10-22T00:04:19.805Z,86.50
2017-10-22T00:06:47.277Z,86.60
2017-10-22T00:09:15.497Z,87.20
2017-10-22T00:11:42.972Z,86.60
2017-10-22T00:14:10.447Z,86.80
2017-10-22T00:16:37.909Z,86.80
2017-10-22T00:19:05.369Z,86.80
2017-10-22T00:21:32.837Z,86.90
2017-10-22T00:24:01.078Z,87.00
2017-10-22T00:26:28.557Z,87.00
2017-10-22T00:28:56.043Z,87.20
2017-10-22T00:31:23.564Z,87.20
2017-10-22T00:33:51.793Z,87.50
2017-10-22T00:36:19.288Z,87.40
2017-10-22T00:38:46.751Z,87.60
2017-10-22T00:41:14.318Z,87.50
2017-10-22T00:43:41.799Z,87.90
2017-10-22T00:46:09.264Z,87.80
2017-10-22T00:48:36.790Z,87.80
2017-10-22T00:51:04.271Z,88.00
2017-10-22T00:53:32.502Z,88.80
2017-10-22T00:55:59.973Z,88.70
2017-10-22T00:58:27.448Z,88.80
2017-10-22T01:00:55.695Z,88.60
2017-10-22T01:03:23.161Z,88.60
2017-10-22T01:05:50.638Z,88.50
2017-10-22T01:08:18.902Z,88.90
2017-10-22T01:10:46.378Z,88.90
2017-10-22T01:13:14.645Z,89.90
2017-10-22T01:15:42.881Z,90.10
2017-10-22T01:18:10.465Z,90.10
2017-10-22T01:20:37.934Z,90.30
2017-10-22T01:23:06.198Z,90.30
2017-10-22T01:25:33.675Z,90.30
2017-10-22T01:28:01.930Z,90.40
2017-10-22T01:30:29.396Z,90.40
2017-10-22T01:32:57.678Z,90.50
2017-10-22T01:35:25.947Z,90.70
2017-10-22T01:37:53.400Z,90.60
2017-10-22T01:40:21.646Z,91.10
2017-10-22T01:42:49.113Z,90.70
2017-10-22T01:45:16.606Z,90.70
2017-10-22T01:47:44.072Z,90.60
2017-10-22T01:50:11.582Z,90.70
2017-10-22T01:52:39.051Z,90.80
2017-10-22T01:55:06.523Z,90.90
2017-10-22T01:57:34.762Z,90.80
2017-10-22T02:00:02.233Z,90.80
2017-10-22T02:02:29.709Z,90.60
2017-10-22T02:04:57.953Z,90.50
2017-10-22T02:07:25.524Z,90.50
2017-10-22T02:09:52.998Z,90.40
2017-10-22T02:12:21.242Z,90.20
2017-10-22T02:14:48.826Z,90.60
2017-10-22T02:17:16.301Z,90.10
2017-10-22T02:19:44.610Z,90.20
2017-10-22T02:22:12.082Z,90.20
2017-10-22T02:24:39.625Z,90.30
2017-10-22T02:27:07.090Z,90.20
2017-10-22T02:29:34.581Z,90.20
2017-10-22T02:32:02.049Z,90.10
2017-10-22T02:34:29.592Z,90.10
2017-10-22T02:36:57.153Z,90.50
2017-10-22T02:39:24.612Z,90.40
2017-10-22T02:41:52.169Z,90.40
2017-10-22T02:44:19.636Z,90.60
2017-10-22T02:46:47.108Z,90.60
2017-10-22T02:49:15.354Z,90.60
2017-10-22T02:51:42.817Z,90.50
2017-10-22T02:54:10.369Z,90.70
2017-10-22T02:56:37.929Z,90.70
2017-10-22T02:59:05.498Z,90.70
2017-10-22T03:01:33.050Z,90.50
2017-10-22T03:04:00.525Z,90.50
2017-10-22T03:06:28.775Z,90.50
2017-10-22T03:08:56.308Z,90.50
2017-10-22T03:11:23.781Z,90.60
2017-10-22T03:13:51.370Z,90.70
2017-10-22T03:16:18.825Z,91.00
2017-10-22T03:18:46.298Z,91.10
2017-10-22T03:21:14.558Z,91.10
2017-10-22T03:23:42.022Z,91.00
2017-10-22T03:26:10.261Z,90.90
2017-10-22T03:28:37.832Z,90.90
2017-10-22T03:31:05.302Z,90.80
2017-10-22T03:33:32.753Z,90.80
2017-10-22T03:36:00.306Z,90.70
2017-10-22T03:38:27.765Z,90.80
2017-10-22T03:40:55.384Z,90.80
2017-10-22T03:43:22.889Z,90.80
2017-10-22T03:45:50.353Z,90.70
2017-10-22T03:48:18.580Z,90.90
2017-10-22T03:50:46.084Z,90.90
2017-10-22T03:53:13.633Z,91.00
2017-10-22T03:55:41.199Z,91.00
2017-10-22T03:58:08.738Z,90.90
2017-10-22T04:00:36.209Z,90.80
2017-10-22T04:03:03.664Z,90.90
2017-10-22T04:05:31.226Z,91.00
2017-10-22T04:07:58.736Z,91.00
2017-10-22T04:10:26.238Z,91.20
2017-10-22T04:12:53.701Z,90.90
2017-10-22T04:15:21.960Z,90.70
2017-10-22T04:17:49.423Z,90.70
2017-10-22T04:20:17.000Z,90.70
2017-10-22T04:22:44.470Z,90.70
2017-10-22T04:25:12.727Z,90.80
2017-10-22T04:27:40.206Z,90.80
2017-10-22T04:30:07.741Z,90.90
2017-10-22T04:32:35.293Z,90.70
2017-10-22T04:35:02.762Z,90.70
2017-10-22T04:37:31.001Z,90.80
2017-10-22T04:39:58.462Z,90.80
2017-10-22T04:42:26.039Z,90.70
2017-10-22T04:44:53.493Z,90.70
2017-10-22T04:47:20.967Z,90.80
2017-10-22T04:49:49.221Z,90.70
2017-10-22T04:52:16.686Z,90.70
2017-10-22T04:54:44.232Z,90.70
2017-10-22T04:57:11.812Z,90.80
2017-10-22T04:59:39.273Z,90.90
2017-10-22T05:02:07.505Z,90.80
2017-10-22T05:04:34.993Z,90.70
2017-10-22T05:07:02.447Z,90.70
2017-10-22T05:09:30.031Z,90.70
2017-10-22T05:11:58.257Z,90.80
2017-10-22T05:14:25.723Z,90.80
2017-10-22T05:16:53.186Z,90.70
2017-10-22T05:19:20.645Z,90.80
2017-10-22T05:21:48.118Z,90.70
2017-10-22T05:24:15.577Z,90.60
2017-10-22T05:26:43.837Z,90.60
2017-10-22T05:29:11.296Z,90.50
2017-10-22T05:31:38.856Z,90.60
2017-10-22T05:34:06.323Z,90.50
2017-10-22T05:36:34.586Z,90.50
2017-10-22T05:39:05.973Z,90.40
2017-10-22T05:41:33.446Z,90.60
2017-10-22T05:44:00.902Z,90.80
2017-10-22T05:46:28.370Z,90.80
2017-10-22T05:48:55.862Z,90.80
2017-10-22T05:51:23.413Z,90.70
2017-10-22T05:53:50.872Z,90.80
2017-10-22T05:56:18.491Z,90.70
2017-10-22T05:58:45.993Z,90.90
2017-10-22T06:01:13.462Z,90.90
2017-10-22T06:03:41.783Z,90.90
2017-10-22T06:06:09.262Z,90.80
2017-10-22T06:08:36.739Z,90.60
2017-10-22T06:11:04.223Z,90.70
2017-10-22T06:13:32.474Z,90.50
2017-10-22T06:15:59.946Z,90.50
2017-10-22T06:18:28.262Z,90.60
2017-10-22T06:20:55.821Z,90.60
2017-10-22T06:23:23.322Z,90.40
2017-10-22T06:25:50.794Z,90.20
2017-10-22T06:28:19.039Z,90.30
2017-10-22T06:30:46.504Z,90.30
2017-10-22T06:33:13.977Z,90.20
2017-10-22T06:35:41.437Z,90.30
2017-10-22T06:38:08.893Z,90.20
2017-10-22T06:40:37.171Z,90.00
2017-10-22T06:43:04.622Z,89.90
2017-10-22T06:45:32.898Z,90.40
2017-10-22T06:48:00.453Z,90.00
2017-10-22T06:50:28.001Z,89.80
2017-10-22T06:52:55.573Z,89.70
2017-10-22T06:55:23.801Z,90.30
2017-10-22T06:57:51.269Z,89.90
2017-10-22T07:00:18.759Z,90.00
2017-10-22T07:02:46.304Z,90.00
2017-10-22T07:05:13.779Z,89.80
2017-10-22T07:07:41.248Z,89.80
2017-10-22T07:10:09.499Z,89.10
2017-10-22T07:12:36.968Z,88.90
2017-10-22T07:15:05.238Z,88.10
2017-10-22T07:17:33.470Z,88.60
2017-10-22T07:20:00.970Z,88.40
2017-10-22T07:22:28.421Z,88.00
2017-10-22T07:24:55.981Z,88.20
2017-10-22T07:27:23.457Z,88.00
2017-10-22T07:29:51.819Z,87.20
2017-10-22T07:32:19.285Z,87.00
2017-10-22T07:34:47.545Z,85.90
2017-10-22T07:37:15.100Z,85.80
2017-10-22T07:39:42.565Z,84.80
2017-10-22T07:42:10.113Z,84.30
2017-10-22T07:44:37.678Z,84.30
2017-10-22T07:47:05.141Z,84.10
2017-10-22T07:49:32.602Z,83.20
2017-10-22T07:52:00.159Z,84.10
2017-10-22T07:54:27.736Z,83.90
2017-10-22T07:56:55.962Z,82.60
2017-10-22T07:59:23.428Z,82.40
2017-10-22T08:01:50.901Z,82.10
2017-10-22T08:04:18.356Z,82.50
2017-10-22T08:06:45.818Z,82.40
2017-10-22T08:09:13.301Z,83.00
2017-10-22T08:11:41.540Z,82.90
2017-10-22T08:14:09.001Z,82.80
2017-10-22T08:16:37.245Z,82.60
2017-10-22T08:19:04.711Z,82.50
2017-10-22T08:21:32.168Z,83.60
2017-10-22T08:23:59.628Z,83.80
2017-10-22T08:26:27.102Z,82.20
2017-10-22T08:28:54.663Z,81.60
2017-10-22T08:31:22.126Z,80.80
2017-10-22T08:33:49.683Z,81.10
2017-10-22T08:36:17.140Z,82.70
2017-10-22T08:38:44.605Z,79.80
2017-10-22T08:41:12.865Z,79.70
2017-10-22T08:43:40.334Z,79.70
2017-10-22T08:46:08.600Z,79.90
2017-10-22T08:48:36.163Z,79.80
2017-10-22T08:51:03.621Z,78.60
2017-10-22T08:53:31.881Z,78.50
2017-10-22T08:55:59.450Z,78.30
2017-10-22T08:58:26.956Z,78.60
2017-10-22T09:00:54.427Z,78.30
2017-10-22T09:03:21.892Z,77.60
2017-10-22T09:05:49.365Z,77.90
2017-10-22T09:08:16.830Z,77.50
2017-10-22T09:10:44.396Z,78.00
2017-10-22T09:13:12.720Z,77.50
2017-10-22T09:15:40.221Z,77.30
2017-10-22T09:18:07.706Z,76.40
2017-10-22T09:20:35.955Z,76.70
2017-10-22T09:23:03.419Z,76.60
2017-10-22T09:25:30.885Z,75.50
2017-10-22T09:27:59.142Z,73.50
2017-10-22T09:30:26.693Z,73.50
2017-10-22T09:32:54.258Z,74.20
2017-10-22T09:35:21.745Z,75.40
2017-10-22T09:37:49.994Z,71.40
2017-10-22T09:40:17.560Z,71.30
2017-10-22T09:42:45.884Z,69.60
2017-10-22T09:45:13.390Z,69.70
2017-10-22T09:47:40.872Z,71.00
2017-10-22T09:50:08.348Z,72.20
2017-10-22T09:52:35.858Z,70.00
2017-10-22T09:55:03.326Z,68.70
2017-10-22T09:57:30.929Z,68.80
2017-10-22T09:59:58.399Z,65.50
2017-10-22T10:02:25.868Z,63.90
2017-10-22T10:04:53.340Z,61.90
2017-10-22T10:07:20.905Z,62.20
2017-10-22T10:09:49.150Z,60.60
2017-10-22T10:12:16.638Z,60.40
2017-10-22T10:14:44.113Z,57.20
2017-10-22T10:17:12.329Z,58.40
2017-10-22T10:19:39.821Z,58.30
2017-10-22T10:22:07.282Z,58.00
2017-10-22T10:24:36.263Z,60.60
2017-10-22T10:27:03.712Z,60.60
2017-10-22T10:29:31.289Z,61.90
2017-10-22T10:31:58.801Z,61.10
2017-10-22T10:34:26.253Z,62.50
2017-10-22T10:36:53.744Z,62.20
2017-10-22T10:39:21.233Z,60.40
2017-10-22T10:41:49.486Z,59.10
2017-10-22T10:44:16.949Z,59.10
2017-10-22T10:46:44.506Z,58.90
2017-10-22T10:49:12.061Z,60.80
2017-10-22T10:51:39.626Z,61.60
2017-10-22T10:54:07.077Z,59.70
2017-10-22T10:56:34.593Z,59.50
2017-10-22T10:59:02.098Z,58.80
2017-10-22T11:01:29.652Z,59.00
2017-10-22T11:03:57.105Z,59.20
2017-10-22T11:06:26.098Z,57.70
2017-10-22T11:08:53.563Z,57.60
2017-10-22T11:11:21.117Z,58.00
2017-10-22T11:13:48.683Z,58.80
2017-10-22T11:16:16.143Z,59.20
2017-10-22T11:18:43.601Z,59.40
2017-10-22T11:21:11.062Z,60.10
2017-10-22T11:23:39.289Z,59.40
2017-10-22T11:26:06.779Z,59.30
2017-10-22T11:28:34.334Z,59.70
2017-10-22T11:31:01.892Z,59.00
2017-10-22T11:33:29.444Z,55.80
2017-10-22T11:35:57.008Z,52.10
2017-10-22T11:38:24.586Z,48.50
2017-10-22T11:40:52.143Z,47.70
2017-10-22T11:43:19.643Z,48.90
2017-10-22T11:45:47.091Z,51.00
2017-10-22T11:48:14.554Z,53.90
2017-10-22T11:50:42.053Z,55.40
2017-10-22T11:53:09.537Z,55.80
2017-10-22T11:55:37.759Z,57.60
2017-10-22T11:58:05.220Z,57.50
2017-10-22T12:00:32.763Z,57.80
2017-10-22T12:03:00.231Z,56.80
2017-10-22T12:05:27.685Z,57.40
2017-10-22T12:07:55.141Z,57.60
2017-10-22T12:10:22.637Z,58.00
2017-10-22T12:12:50.099Z,58.40
2017-10-22T12:15:18.350Z,58.80
2017-10-22T12:17:45.816Z,58.70
2017-10-22T12:20:13.273Z,58.40
2017-10-22T12:22:40.829Z,57.60
2017-10-22T12:25:08.400Z,56.20
2017-10-22T12:27:35.861Z,57.20
2017-10-22T12:30:04.094Z,57.40
2017-10-22T12:32:31.548Z,57.60
2017-10-22T12:34:59.018Z,57.90
2017-10-22T12:37:26.499Z,57.80
2017-10-22T12:39:54.052Z,58.00
2017-10-22T12:42:21.517Z,58.70
2017-10-22T12:44:48.978Z,58.60
2017-10-22T12:47:16.482Z,58.60
2017-10-22T12:49:43.944Z,58.30
2017-10-22T12:52:11.422Z,57.90
2017-10-22T12:54:38.895Z,57.90
2017-10-22T12:57:06.453Z,55.60
2017-10-22T12:59:34.012Z,55.30
2017-10-22T13:02:02.245Z,55.10
2017-10-22T13:04:29.745Z,55.20
2017-10-22T13:06:57.305Z,54.50
2017-10-22T13:09:24.862Z,55.00
2017-10-22T13:11:52.376Z,55.60
2017-10-22T13:14:19.883Z,55.70
2017-10-22T13:16:47.438Z,56.20
2017-10-22T13:19:15.002Z,56.20
2017-10-22T13:21:42.553Z,56.00
2017-10-22T13:24:10.830Z,56.70
2017-10-22T13:26:38.284Z,56.70
2017-10-22T13:29:05.753Z,56.90
2017-10-22T13:31:35.635Z,57.60
2017-10-22T13:34:04.424Z,57.00
2017-10-22T13:36:32.314Z,57.00
2017-10-22T13:38:59.793Z,56.80
2017-10-22T13:41:28.026Z,57.10
2017-10-22T13:43:55.513Z,57.10
2017-10-22T13:46:23.739Z,57.30
2017-10-22T13:48:51.225Z,57.20
2017-10-22T13:51:18.788Z,57.90
2017-10-22T13:53:46.254Z,57.20
2017-10-22T13:56:13.799Z,57.50
2017-10-22T13:58:41.294Z,57.90
2017-10-22T14:01:08.812Z,58.20
2017-10-22T14:03:36.438Z,58.40
2017-10-22T14:06:03.942Z,58.40
2017-10-22T14:08:31.511Z,59.10
2017-10-22T14:10:59.064Z,59.30
2017-10-22T14:13:26.512Z,60.20
2017-10-22T14:15:53.978Z,59.70
2017-10-22T14:18:21.444Z,59.70
2017-10-22T14:20:49.686Z,60.10
2017-10-22T14:23:17.146Z,60.00
2017-10-22T14:25:44.716Z,60.20
2017-10-22T14:28:12.282Z,59.70
2017-10-22T14:30:39.753Z,60.20
2017-10-22T14:33:08.007Z,60.40
2017-10-22T14:35:35.574Z,60.30
2017-10-22T14:38:03.816Z,61.60
2017-10-22T14:40:31.287Z,61.10
2017-10-22T14:42:58.744Z,61.00
2017-10-22T14:45:26.317Z,61.10
2017-10-22T14:47:53.790Z,61.70
2017-10-22T14:50:22.031Z,61.20
2017-10-22T14:52:49.597Z,61.10
2017-10-22T14:55:17.837Z,62.20
2017-10-22T14:57:45.310Z,62.00
2017-10-22T15:00:12.773Z,63.30
2017-10-22T15:02:40.306Z,65.10
2017-10-22T15:05:07.777Z,64.60
2017-10-22T15:07:35.229Z,65.30
2017-10-22T15:10:02.699Z,63.10
2017-10-22T15:12:30.167Z,62.40
2017-10-22T15:14:57.628Z,62.90
2017-10-22T15:17:25.148Z,63.30
2017-10-22T15:19:52.610Z,64.00
2017-10-22T15:22:20.074Z,63.90
2017-10-22T15:24:47.553Z,63.90
2017-10-22T15:27:15.030Z,64.10
2017-10-22T15:29:42.569Z,64.20
2017-10-22T15:32:10.034Z,64.60
2017-10-22T15:34:37.506Z,65.00
2017-10-22T15:37:05.740Z,65.10
2017-10-22T15:39:33.321Z,65.10
2017-10-22T15:42:00.786Z,65.30
2017-10-22T15:44:28.334Z,65.60
2017-10-22T15:46:55.801Z,65.80
2017-10-22T15:49:23.361Z,65.70
2017-10-22T15:51:50.939Z,65.90
2017-10-22T15:54:19.252Z,66.40
2017-10-22T15:56:46.708Z,66.40
2017-10-22T15:59:15.804Z,66.50
2017-10-22T16:01:43.285Z,66.40
2017-10-22T16:04:10.746Z,66.30
2017-10-22T16:06:38.226Z,66.50
2017-10-22T16:09:05.699Z,66.60
2017-10-22T16:11:33.944Z,66.80
2017-10-22T16:14:01.430Z,66.80
2017-10-22T16:16:29.762Z,66.80
2017-10-22T16:18:57.293Z,66.80
2017-10-22T16:21:24.798Z,67.20
2017-10-22T16:23:52.282Z,67.60
2017-10-22T16:26:19.744Z,67.50
2017-10-22T16:28:47.294Z,67.40
2017-10-22T16:31:15.577Z,67.70
2017-10-22T16:33:43.156Z,67.70
2017-10-22T16:36:10.631Z,67.90
2017-10-22T16:38:38.134Z,68.00
2017-10-22T16:41:06.389Z,68.60
2017-10-22T16:43:33.874Z,68.50
2017-10-22T16:46:02.101Z,69.10
2017-10-22T16:48:29.577Z,69.10
2017-10-22T16:50:57.033Z,69.30
2017-10-22T16:53:24.602Z,69.60
2017-10-22T16:55:52.854Z,70.10
2017-10-22T16:58:20.339Z,70.00
2017-10-22T17:00:48.574Z,70.10
2017-10-22T17:03:16.117Z,70.00
2017-10-22T17:05:43.587Z,70.10
2017-10-22T17:08:11.058Z,70.10
2017-10-22T17:10:38.544Z,70.10
2017-10-22T17:13:06.778Z,70.00
2017-10-22T17:15:34.321Z,70.00
2017-10-22T17:18:01.793Z,70.30
2017-10-22T17:20:29.372Z,70.50
2017-10-22T17:22:56.829Z,70.90
2017-10-22T17:25:25.814Z,70.70
2017-10-22T17:27:53.274Z,70.70
2017-10-22T17:30:20.965Z,70.90
2017-10-22T17:32:49.200Z,70.70
2017-10-22T17:35:16.681Z,70.50
2017-10-22T17:37:44.238Z,71.10
2017-10-22T17:40:11.791Z,71.50
2017-10-22T17:42:39.365Z,72.00
2017-10-22T17:45:07.630Z,72.80
2017-10-22T17:47:35.102Z,71.90
2017-10-22T17:50:03.365Z,72.40
2017-10-22T17:52:30.862Z,72.30
2017-10-22T17:54:58.338Z,72.30
2017-10-22T17:57:25.813Z,72.90
2017-10-22T17:59:53.384Z,73.90
2017-10-22T18:02:20.947Z,74.90
2017-10-22T18:04:48.414Z,75.50
2017-10-22T18:07:16.666Z,77.50
2017-10-22T18:09:44.139Z,76.70
2017-10-22T18:12:11.623Z,76.50
2017-10-22T18:14:39.884Z,76.60
2017-10-22T18:17:08.130Z,76.70
2017-10-22T18:19:35.764Z,76.60
2017-10-22T18:22:04.244Z,77.20
2017-10-22T18:24:31.736Z,76.50
2017-10-22T18:26:59.204Z,77.00
2017-10-22T18:29:26.665Z,77.20
2017-10-22T18:31:54.141Z,77.30
2017-10-22T18:34:21.607Z,77.20
2017-10-22T18:36:49.107Z,77.50
2017-10-22T18:39:16.569Z,77.50
2017-10-22T18:41:44.030Z,77.90
2017-10-22T18:44:11.498Z,77.70
2017-10-22T18:46:38.975Z,77.60
2017-10-22T18:49:07.228Z,77.10
2017-10-22T18:51:34.710Z,77.10
2017-10-22T18:54:02.952Z,77.50
2017-10-22T18:56:30.533Z,77.40
2017-10-22T18:58:58.766Z,77.30
2017-10-22T19:01:26.258Z,77.20
2017-10-22T19:03:54.524Z,78.10
2017-10-22T19:06:22.009Z,77.20
2017-10-22T19:08:50.250Z,77.30
2017-10-22T19:11:17.718Z,77.20
2017-10-22T19:13:45.269Z,77.20
2017-10-22T19:16:12.732Z,77.10
2017-10-22T19:18:40.290Z,76.80
2017-10-22T19:21:07.909Z,77.20
2017-10-22T19:23:35.415Z,77.20
2017-10-22T19:26:02.983Z,77.10
2017-10-22T19:28:31.216Z,77.00
2017-10-22T19:30:58.681Z,76.90
2017-10-22T19:33:26.418Z,77.50
2017-10-22T19:35:53.881Z,77.60
2017-10-22T19:38:21.374Z,77.50
2017-10-22T19:40:48.852Z,77.60
2017-10-22T19:43:17.168Z,77.70
2017-10-22T19:45:44.630Z,77.70
2017-10-22T19:48:12.103Z,77.80
2017-10-22T19:50:39.569Z,77.60
2017-10-22T19:53:07.046Z,77.20
2017-10-22T19:55:34.601Z,77.00
2017-10-22T19:58:02.176Z,77.50
2017-10-22T20:00:30.433Z,77.50
2017-10-22T20:02:57.987Z,77.40
2017-10-22T20:05:25.459Z,78.00
2017-10-22T20:07:53.698Z,78.70
2017-10-22T20:10:21.194Z,78.50
2017-10-22T20:12:49.462Z,78.90
2017-10-22T20:15:17.696Z,79.10
2017-10-22T20:17:45.158Z,78.70
2017-10-22T20:20:12.641Z,78.70
2017-10-22T20:22:40.125Z,79.20
2017-10-22T20:25:08.365Z,79.30
2017-10-22T20:27:35.833Z,79.20
2017-10-22T20:30:03.451Z,79.10
2017-10-22T20:32:30.923Z,79.50
2017-10-22T20:34:58.379Z,79.80
2017-10-22T20:37:25.850Z,80.10
2017-10-22T20:39:53.417Z,80.20
2017-10-22T20:42:20.904Z,80.20
2017-10-22T20:44:49.149Z,80.10
2017-10-22T20:47:16.665Z,80.10
2017-10-22T20:49:44.128Z,80.40
2017-10-22T20:52:11.608Z,80.50
2017-10-22T20:54:39.138Z,80.60
2017-10-22T20:57:06.597Z,80.10
2017-10-22T20:59:34.078Z,80.40
2017-10-22T21:02:01.555Z,80.40
2017-10-22T21:04:29.051Z,80.50
2017-10-22T21:06:56.624Z,80.70
2017-10-22T21:09:24.089Z,80.50
2017-10-22T21:11:51.552Z,80.70
2017-10-22T21:14:19.037Z,80.40
2017-10-22T21:16:46.537Z,80.70
2017-10-22T21:19:14.129Z,81.30
2017-10-22T21:21:41.628Z,80.20
2017-10-22T21:24:09.932Z,80.30
2017-10-22T21:26:37.463Z,80.30
2017-10-22T21:29:05.684Z,80.40
2017-10-22T21:31:33.202Z,80.30
2017-10-22T21:34:01.438Z,80.40
2017-10-22T21:36:28.931Z,80.30
2017-10-22T21:38:57.152Z,80.50
2017-10-22T21:41:24.633Z,80.40
2017-10-22T21:43:52.112Z,80.80
2017-10-22T21:46:20.361Z,80.70
2017-10-22T21:48:47.890Z,80.60
2017-10-22T21:51:15.354Z,80.70
2017-10-22T21:53:42.853Z,80.80
2017-10-22T21:56:10.338Z,80.70
2017-10-22T21:58:37.865Z,80.90
2017-10-22T22:01:05.350Z,80.60
2017-10-22T22:03:32.882Z,80.80
2017-10-22T22:06:01.154Z,81.50
2017-10-22T22:08:28.637Z,81.00
2017-10-22T22:10:56.118Z,81.30
2017-10-22T22:13:23.599Z,81.00
2017-10-22T22:15:51.166Z,81.00
2017-10-22T22:18:18.642Z,81.30
2017-10-22T22:20:46.118Z,82.00
2017-10-22T22:23:14.429Z,82.60
2017-10-22T22:25:41.896Z,82.50
2017-10-22T22:28:09.389Z,82.70
2017-10-22T22:30:36.877Z,82.90
2017-10-22T22:33:04.398Z,83.10
2017-10-22T22:35:31.875Z,83.30
2017-10-22T22:38:00.110Z,84.50
2017-10-22T22:40:27.594Z,84.50
2017-10-22T22:42:55.072Z,84.20
2017-10-22T22:45:23.316Z,84.20
2017-10-22T22:47:50.777Z,84.20
2017-10-22T22:50:18.244Z,84.40
2017-10-22T22:52:45.796Z,83.90
2017-10-22T22:55:13.354Z,83.90
2017-10-22T22:57:40.934Z,84.20
2017-10-22T23:00:08.426Z,83.70
2017-10-22T23:02:35.901Z,83.70
2017-10-22T23:05:03.366Z,83.20
2017-10-22T23:07:30.838Z,82.70
2017-10-22T23:09:58.305Z,82.80
2017-10-22T23:12:25.866Z,82.70
2017-10-22T23:14:53.338Z,83.80
2017-10-22T23:17:21.589Z,82.90
2017-10-22T23:19:49.157Z,82.80
2017-10-22T23:22:17.423Z,82.60
2017-10-22T23:24:44.985Z,82.60
2017-10-22T23:27:13.230Z,82.80
2017-10-22T23:29:40.704Z,82.70
2017-10-22T23:32:08.181Z,82.50
2017-10-22T23:34:36.440Z,82.20
2017-10-22T23:37:04.017Z,82.00
2017-10-22T23:39:32.296Z,81.70
2017-10-22T23:42:00.521Z,81.90
2017-10-22T23:44:28.001Z,81.90
2017-10-22T23:46:55.457Z,82.10
2017-10-22T23:49:22.936Z,81.90
2017-10-22T23:51:51.192Z,82.30
2017-10-22T23:54:18.669Z,82.10
2017-10-22T23:56:46.909Z,82.30
2017-10-22T23:59:14.407Z,82.30
